createdAt,value
2022-10-11T00:01:17.275Z,15.40
2022-10-11T00:03:45.584Z,16.20
2022-10-11T00:06:14.045Z,18.20
2022-10-11T00:08:42.675Z,16.20
2022-10-11T00:11:12.705Z,12.80
2022-10-11T00:13:41.210Z,17.00
2022-10-11T00:16:11.821Z,18.40
2022-10-11T00:18:40.787Z,17.80
2022-10-11T00:21:12.957Z,18.00
2022-10-11T00:23:42.567Z,19.80
2022-10-11T00:26:23.230Z,15.20
2022-10-11T00:29:01.615Z,16.25
2022-10-11T00:31:41.564Z,16.80
2022-10-11T00:34:22.569Z,16.60
2022-10-11T00:37:01.687Z,16.20
2022-10-11T00:39:42.192Z,16.00
2022-10-11T00:42:21.960Z,18.20
2022-10-11T00:45:33.822Z,14.80
2022-10-11T00:48:21.162Z,14.40
2022-10-11T00:51:04.176Z,16.40
2022-10-11T00:53:43.653Z,12.00
2022-10-11T00:56:27.882Z,15.80
2022-10-11T00:59:16.928Z,17.40
2022-10-11T01:01:57.643Z,17.60
2022-10-11T01:04:39.022Z,12.20
2022-10-11T01:07:21.255Z,17.20
2022-10-11T01:10:01.280Z,14.40
2022-10-11T01:12:49.534Z,14.40
2022-10-11T01:15:35.932Z,16.25
2022-10-11T01:18:25.732Z,16.80
2022-10-11T01:21:13.307Z,16.00
2022-10-11T01:24:29.686Z,16.25
2022-10-11T01:27:30.755Z,15.20
2022-10-11T01:30:26.866Z,15.20
2022-10-11T01:33:19.828Z,14.00
2022-10-11T01:36:12.329Z,15.00
2022-10-11T01:38:58.535Z,14.75
2022-10-11T01:41:47.172Z,12.60
2022-10-11T01:44:28.163Z,15.80
2022-10-11T01:47:08.608Z,12.50
2022-10-11T01:49:54.803Z,14.20
2022-10-11T01:52:40.911Z,15.20
2022-10-11T01:55:31.413Z,13.40
2022-10-11T01:58:21.046Z,12.20
2022-10-11T02:01:09.688Z,14.25
2022-10-11T02:04:00.895Z,11.80
2022-10-11T02:06:49.716Z,15.00
2022-10-11T02:09:37.057Z,14.40
2022-10-11T02:12:24.740Z,15.00
2022-10-11T02:15:10.133Z,13.20
2022-10-11T02:17:55.148Z,15.00
2022-10-11T02:20:40.906Z,14.20
2022-10-11T02:23:25.145Z,13.60
2022-10-11T02:26:09.914Z,14.60
2022-10-11T02:28:54.169Z,14.80
2022-10-11T02:31:35.840Z,15.25
2022-10-11T02:34:20.056Z,11.60
2022-10-11T02:37:05.506Z,14.20
2022-10-11T02:39:49.787Z,14.40
2022-10-11T02:42:36.533Z,14.00
2022-10-11T02:45:20.962Z,13.80
2022-10-11T02:48:01.547Z,14.60
2022-10-11T02:50:43.397Z,11.40
2022-10-11T02:53:23.862Z,9.00
2022-10-11T02:56:06.315Z,14.20
2022-10-11T02:58:47.208Z,15.40
2022-10-11T03:01:27.285Z,14.50
2022-10-11T03:04:07.325Z,18.40
2022-10-11T03:06:47.574Z,33.00
2022-10-11T03:09:28.494Z,18.60
2022-10-11T03:12:08.993Z,17.20
2022-10-11T03:14:49.813Z,14.20
2022-10-11T03:17:36.577Z,15.40
2022-10-11T03:20:18.433Z,23.75
2022-10-11T03:22:58.766Z,17.40
2022-10-11T03:25:38.625Z,19.75
2022-10-11T03:28:18.528Z,18.00
2022-10-11T03:30:58.613Z,15.20
2022-10-11T03:33:38.657Z,14.00
2022-10-11T03:36:18.964Z,15.25
2022-10-11T03:39:00.511Z,15.40
2022-10-11T03:41:39.337Z,24.25
2022-10-11T03:44:20.481Z,19.25
2022-10-11T03:46:58.928Z,20.00
2022-10-11T03:49:43.424Z,14.60
2022-10-11T03:52:24.789Z,15.60
2022-10-11T03:55:04.901Z,14.60
2022-10-11T03:57:44.334Z,14.00
2022-10-11T04:00:24.240Z,25.25
2022-10-11T04:03:04.368Z,16.20
2022-10-11T04:05:45.649Z,17.40
2022-10-11T04:08:43.711Z,12.00
2022-10-11T04:11:22.981Z,21.50
2022-10-11T04:14:02.623Z,16.00
2022-10-11T04:16:43.772Z,12.40
2022-10-11T04:19:23.546Z,0.00
2022-10-11T04:22:03.523Z,12.60
2022-10-11T04:24:43.244Z,11.40
2022-10-11T04:27:22.970Z,21.25
2022-10-11T04:30:02.834Z,15.80
2022-10-11T04:32:42.509Z,11.40
2022-10-11T04:35:22.334Z,15.80
2022-10-11T04:38:01.211Z,13.00
2022-10-11T04:40:41.993Z,13.40
2022-10-11T04:43:20.477Z,13.50
2022-10-11T04:45:58.681Z,16.40
2022-10-11T04:48:38.357Z,13.60
2022-10-11T04:51:18.146Z,18.00
2022-10-11T04:53:59.822Z,18.60
2022-10-11T04:56:39.188Z,14.00
2022-10-11T04:59:17.698Z,13.20
2022-10-11T05:01:57.525Z,14.20
2022-10-11T05:04:37.214Z,13.00
2022-10-11T05:07:16.871Z,15.80
2022-10-11T05:09:56.664Z,15.80
2022-10-11T05:12:36.411Z,18.20
2022-10-11T05:15:16.407Z,15.80
2022-10-11T05:17:56.060Z,14.40
2022-10-11T05:20:35.849Z,14.00
2022-10-11T05:23:17.038Z,13.40
2022-10-11T05:25:57.193Z,13.00
2022-10-11T05:28:35.923Z,13.00
2022-10-11T05:31:17.814Z,12.20
2022-10-11T05:33:58.080Z,12.40
2022-10-11T05:36:38.335Z,11.60
2022-10-11T05:39:18.948Z,13.50
2022-10-11T05:42:00.945Z,13.20
2022-10-11T05:44:42.211Z,12.50
2022-10-11T05:47:21.904Z,12.00
2022-10-11T05:50:01.638Z,14.00
2022-10-11T05:52:41.557Z,12.20
2022-10-11T05:55:22.257Z,15.00
2022-10-11T05:58:04.080Z,16.60
2022-10-11T06:00:44.123Z,19.50
2022-10-11T06:03:25.211Z,15.80
2022-10-11T06:06:06.151Z,15.40
2022-10-11T06:08:46.036Z,14.40
2022-10-11T06:11:28.594Z,18.25
2022-10-11T06:14:08.288Z,19.00
2022-10-11T06:17:16.565Z,13.20
2022-10-11T06:19:55.007Z,14.50
2022-10-11T06:22:49.059Z,13.40
2022-10-11T06:25:42.448Z,17.20
2022-10-11T06:28:37.683Z,10.25
2022-10-11T06:31:32.780Z,14.40
2022-10-11T06:34:26.981Z,18.20
2022-10-11T06:37:26.887Z,16.20
2022-10-11T06:40:26.015Z,16.40
2022-10-11T06:43:05.617Z,17.50
2022-10-11T06:45:44.104Z,16.25
2022-10-11T06:48:51.250Z,17.40
2022-10-11T06:51:48.466Z,15.00
2022-10-11T06:54:49.112Z,16.40
2022-10-11T06:57:29.032Z,20.67
2022-10-11T07:00:29.179Z,20.20
2022-10-11T07:03:22.322Z,17.50
2022-10-11T07:06:19.190Z,20.00
2022-10-11T07:09:24.393Z,22.50
2022-10-11T07:12:20.983Z,22.25
2022-10-11T07:15:18.877Z,19.75
2022-10-11T07:18:16.063Z,20.25
2022-10-11T07:20:54.976Z,20.00
2022-10-11T07:23:57.786Z,17.40
2022-10-11T07:26:38.195Z,19.67
2022-10-11T07:29:42.463Z,18.00
2022-10-11T07:32:39.401Z,13.75
2022-10-11T07:35:45.931Z,22.50
2022-10-11T07:38:47.558Z,22.25
2022-10-11T07:41:45.360Z,20.25
2022-10-11T07:44:54.769Z,20.25
2022-10-11T07:47:52.545Z,25.25
2022-10-11T07:50:51.413Z,22.00
2022-10-11T07:53:46.253Z,23.75
2022-10-11T07:56:41.108Z,22.75
2022-10-11T07:59:34.828Z,22.25
2022-10-11T08:02:29.025Z,23.50
2022-10-11T08:05:08.817Z,20.33
2022-10-11T08:08:06.786Z,20.50
2022-10-11T08:11:39.325Z,17.60
2022-10-11T08:14:36.691Z,20.50
2022-10-11T08:17:34.259Z,20.00
2022-10-11T08:20:33.190Z,19.75
2022-10-11T08:23:46.298Z,18.60
2022-10-11T08:26:41.719Z,20.40
2022-10-11T08:29:20.265Z,19.25
2022-10-11T08:32:14.715Z,22.00
2022-10-11T08:35:12.496Z,23.25
2022-10-11T08:38:09.592Z,21.25
2022-10-11T08:40:50.711Z,23.33
2022-10-11T08:43:52.903Z,22.00
2022-10-11T08:46:24.843Z,22.00
2022-10-11T08:48:53.953Z,18.75
2022-10-11T08:51:28.022Z,23.00
2022-10-11T08:54:07.363Z,20.20
2022-10-11T08:56:39.844Z,22.00
2022-10-11T08:59:32.354Z,19.50
2022-10-11T09:02:13.243Z,21.80
2022-10-11T09:04:41.731Z,20.00
2022-10-11T09:07:20.385Z,20.60
2022-10-11T09:10:02.255Z,18.20
2022-10-11T09:12:43.957Z,18.20
2022-10-11T09:15:31.105Z,13.00
2022-10-11T09:18:19.404Z,20.00
2022-10-11T09:20:57.387Z,22.50
2022-10-11T09:23:41.431Z,25.75
2022-10-11T09:26:16.083Z,20.75
2022-10-11T09:29:00.986Z,22.50
2022-10-11T09:31:32.593Z,23.75
2022-10-11T09:34:11.446Z,22.75
2022-10-11T09:36:45.985Z,24.25
2022-10-11T09:39:28.860Z,26.25
2022-10-11T09:42:02.283Z,23.50
2022-10-11T09:44:36.782Z,24.00
2022-10-11T09:47:07.338Z,25.25
2022-10-11T09:49:41.663Z,23.00
2022-10-11T09:52:17.649Z,23.25
2022-10-11T09:54:49.887Z,23.25
2022-10-11T09:57:23.283Z,25.25
2022-10-11T10:00:03.047Z,23.75
2022-10-11T10:02:43.979Z,22.75
2022-10-11T10:05:21.937Z,24.25
2022-10-11T10:08:05.096Z,25.67
2022-10-11T10:10:40.116Z,25.50
2022-10-11T10:13:21.859Z,23.75
2022-10-11T10:15:53.674Z,23.50
2022-10-11T10:18:27.233Z,27.25
2022-10-11T10:20:59.526Z,24.25
2022-10-11T10:23:30.812Z,27.00
2022-10-11T10:26:12.663Z,26.00
2022-10-11T10:28:56.881Z,29.50
2022-10-11T10:31:30.698Z,25.75
2022-10-11T10:34:01.002Z,27.75
2022-10-11T10:36:35.081Z,25.50
2022-10-11T10:39:11.278Z,24.75
2022-10-11T10:41:39.956Z,24.25
2022-10-11T10:44:11.644Z,26.75
2022-10-11T10:46:54.816Z,26.75
2022-10-11T10:52:42.934Z,26.00
2022-10-11T10:55:22.915Z,27.75
2022-10-11T10:58:06.209Z,24.50
2022-10-11T11:00:42.132Z,28.25
2022-10-11T11:03:21.946Z,29.25
2022-10-11T11:05:59.303Z,28.50
2022-10-11T11:08:46.633Z,30.00
2022-10-11T11:11:33.535Z,28.25
2022-10-11T11:14:11.081Z,28.00
2022-10-11T11:16:48.596Z,27.00
2022-10-11T11:19:33.657Z,32.00
2022-10-11T11:22:11.016Z,29.75
2022-10-11T11:24:53.799Z,32.25
2022-10-11T11:27:39.172Z,32.50
2022-10-11T11:30:13.241Z,33.50
2022-10-11T11:32:53.815Z,34.25
2022-10-11T11:35:28.942Z,33.25
2022-10-11T11:38:06.531Z,31.50
2022-10-11T11:40:40.722Z,34.75
2022-10-11T11:43:21.009Z,34.50
2022-10-11T11:45:53.784Z,34.50
2022-10-11T11:48:24.790Z,36.00
2022-10-11T11:51:02.368Z,34.25
2022-10-11T11:53:51.172Z,35.50
2022-10-11T11:56:28.768Z,36.67
2022-10-11T11:59:04.500Z,37.00
2022-10-11T12:01:41.730Z,37.50
2022-10-11T12:04:20.310Z,37.50
2022-10-11T12:07:15.422Z,37.33
2022-10-11T12:09:50.466Z,36.67
2022-10-11T12:12:30.739Z,40.33
2022-10-11T12:15:22.519Z,37.67
2022-10-11T12:18:07.247Z,39.00
2022-10-11T12:20:39.670Z,41.67
2022-10-11T12:23:43.462Z,31.75
2022-10-11T12:26:34.032Z,43.50
2022-10-11T12:29:06.399Z,40.00
2022-10-11T12:31:36.888Z,41.75
2022-10-11T12:34:21.013Z,43.50
2022-10-11T12:36:51.055Z,33.75
2022-10-11T12:39:46.648Z,40.75
2022-10-11T12:42:30.017Z,43.00
2022-10-11T12:45:32.378Z,41.25
2022-10-11T12:48:12.777Z,42.00
2022-10-11T12:50:51.385Z,43.00
2022-10-11T12:53:36.143Z,46.00
2022-10-11T12:56:10.636Z,43.50
2022-10-11T12:58:42.099Z,44.00
2022-10-11T13:01:20.681Z,45.50
2022-10-11T13:04:07.793Z,44.00
2022-10-11T13:06:45.342Z,48.00
2022-10-11T13:09:21.773Z,45.75
2022-10-11T13:11:53.797Z,43.75
2022-10-11T13:14:27.241Z,46.00
2022-10-11T13:17:00.510Z,44.25
2022-10-11T13:19:30.087Z,46.25
2022-10-11T13:22:01.415Z,43.00
2022-10-11T13:24:37.121Z,39.33
2022-10-11T13:27:07.561Z,35.50
2022-10-11T13:29:41.299Z,39.00
2022-10-11T13:32:16.410Z,49.00
2022-10-11T13:34:50.340Z,40.67
2022-10-11T13:37:21.716Z,46.00
2022-10-11T13:39:53.888Z,35.00
2022-10-11T13:42:28.355Z,35.33
2022-10-11T13:44:59.808Z,33.50
2022-10-11T13:47:31.753Z,34.75
2022-10-11T13:50:09.196Z,35.00
2022-10-11T13:52:51.206Z,35.00
2022-10-11T13:55:26.078Z,34.00
2022-10-11T13:57:55.984Z,35.75
2022-10-11T14:00:37.728Z,34.50
2022-10-11T14:03:17.114Z,36.25
2022-10-11T14:05:54.821Z,32.00
2022-10-11T14:08:31.965Z,35.00
2022-10-11T14:11:06.093Z,38.67
2022-10-11T14:13:37.783Z,37.00
2022-10-11T14:16:10.333Z,33.75
2022-10-11T14:18:46.025Z,30.75
2022-10-11T14:21:33.756Z,32.50
2022-10-11T14:24:05.141Z,33.25
2022-10-11T14:26:36.295Z,34.00
2022-10-11T14:29:09.603Z,36.50
2022-10-11T14:31:42.290Z,36.00
2022-10-11T14:34:19.161Z,36.67
2022-10-11T14:36:48.844Z,35.00
2022-10-11T14:39:21.040Z,38.67
2022-10-11T14:41:50.384Z,35.25
2022-10-11T14:44:20.351Z,33.25
2022-10-11T14:46:54.349Z,36.67
2022-10-11T14:49:26.104Z,36.00
2022-10-11T14:51:56.988Z,42.75
2022-10-11T14:54:29.226Z,47.50
2022-10-11T14:57:04.882Z,40.00
2022-10-11T14:59:37.133Z,35.75
2022-10-11T15:02:12.255Z,39.33
2022-10-11T15:04:40.991Z,42.25
2022-10-11T15:07:09.449Z,43.00
2022-10-11T15:09:38.532Z,48.00
2022-10-11T15:12:07.065Z,49.00
2022-10-11T15:14:35.510Z,49.75
2022-10-11T15:17:04.529Z,47.00
2022-10-11T15:19:34.362Z,49.25
2022-10-11T15:22:05.998Z,62.75
2022-10-11T15:24:34.748Z,45.25
2022-10-11T15:27:03.211Z,51.75
2022-10-11T15:29:31.879Z,53.00
2022-10-11T15:32:00.662Z,48.50
2022-10-11T15:34:29.296Z,49.75
2022-10-11T15:36:59.007Z,55.50
2022-10-11T15:39:31.532Z,55.25
2022-10-11T15:42:00.664Z,53.50
2022-10-11T15:44:29.455Z,48.50
2022-10-11T15:46:58.672Z,49.00
2022-10-11T15:49:27.428Z,47.25
2022-10-11T15:51:55.923Z,52.50
2022-10-11T15:54:25.893Z,54.25
2022-10-11T15:56:54.849Z,52.50
2022-10-11T15:59:23.384Z,50.50
2022-10-11T16:01:52.223Z,49.50
2022-10-11T16:04:20.830Z,48.75
2022-10-11T16:06:49.404Z,51.75
2022-10-11T16:09:20.278Z,53.00
2022-10-11T16:11:50.354Z,54.00
2022-10-11T16:14:19.283Z,54.75
2022-10-11T16:16:47.782Z,54.25
2022-10-11T16:19:16.669Z,61.00
2022-10-11T16:21:45.475Z,64.25
2022-10-11T16:24:14.372Z,57.25
2022-10-11T16:26:43.343Z,59.50
2022-10-11T16:29:13.715Z,61.00
2022-10-11T16:31:42.157Z,62.50
2022-10-11T16:34:10.969Z,52.25
2022-10-11T16:36:42.528Z,62.75
2022-10-11T16:39:14.197Z,58.50
2022-10-11T16:41:43.153Z,54.50
2022-10-11T16:44:16.896Z,54.00
2022-10-11T16:46:48.249Z,52.75
2022-10-11T16:49:18.509Z,55.25
2022-10-11T16:51:47.250Z,55.00
2022-10-11T16:54:20.388Z,60.75
2022-10-11T16:56:49.632Z,56.50
2022-10-11T16:59:20.689Z,56.75
2022-10-11T17:01:49.249Z,63.50
2022-10-11T17:04:18.118Z,57.50
2022-10-11T17:06:46.693Z,59.00
2022-10-11T17:09:16.206Z,54.50
2022-10-11T17:11:45.077Z,60.50
2022-10-11T17:14:14.074Z,58.50
2022-10-11T17:16:44.386Z,56.50
2022-10-11T17:19:15.609Z,62.50
2022-10-11T17:21:44.201Z,63.25
2022-10-11T17:24:13.107Z,61.00
2022-10-11T17:26:41.717Z,60.25
2022-10-11T17:29:15.777Z,62.00
2022-10-11T17:31:49.257Z,61.25
2022-10-11T17:34:20.456Z,60.50
2022-10-11T17:36:49.824Z,59.00
2022-10-11T17:39:20.860Z,58.25
2022-10-11T17:41:49.998Z,59.50
2022-10-11T17:44:19.348Z,61.25
2022-10-11T17:46:50.680Z,61.00
2022-10-11T17:49:20.063Z,58.25
2022-10-11T17:51:48.743Z,60.75
2022-10-11T17:54:17.824Z,62.75
2022-10-11T17:56:46.598Z,60.75
2022-10-11T17:59:22.187Z,62.50
2022-10-11T18:01:51.995Z,58.50
2022-10-11T18:04:21.932Z,68.00
2022-10-11T18:06:50.509Z,60.50
2022-10-11T18:09:19.717Z,67.00
2022-10-11T18:11:49.093Z,63.25
2022-10-11T18:14:18.468Z,64.50
2022-10-11T18:16:47.768Z,71.75
2022-10-11T18:19:17.869Z,57.25
2022-10-11T18:21:46.440Z,62.75
2022-10-11T18:24:16.523Z,61.00
2022-10-11T18:26:46.652Z,60.75
2022-10-11T18:29:15.874Z,59.25
2022-10-11T18:31:45.298Z,59.00
2022-10-11T18:34:15.899Z,64.25
2022-10-11T18:36:46.243Z,61.00
2022-10-11T18:39:16.188Z,61.50
2022-10-11T18:41:45.341Z,62.75
2022-10-11T18:44:16.716Z,58.75
2022-10-11T18:47:10.961Z,60.00
2022-10-11T18:50:00.793Z,64.50
2022-10-11T18:52:31.072Z,59.75
2022-10-11T18:55:02.793Z,62.00
2022-10-11T18:57:32.676Z,67.00
2022-10-11T19:00:07.383Z,60.50
2022-10-11T19:02:41.094Z,61.50
2022-10-11T19:05:12.334Z,64.25
2022-10-11T19:07:43.751Z,57.75
2022-10-11T19:10:12.310Z,59.75
2022-10-11T19:12:41.732Z,55.50
2022-10-11T19:15:12.595Z,57.00
2022-10-11T19:17:41.410Z,53.50
2022-10-11T19:20:13.285Z,56.00
2022-10-11T19:22:43.565Z,52.25
2022-10-11T19:25:12.102Z,49.00
2022-10-11T19:27:40.698Z,41.00
2022-10-11T19:30:10.256Z,55.25
2022-10-11T19:32:38.732Z,55.75
2022-10-11T19:35:08.964Z,55.00
2022-10-11T19:37:37.415Z,55.75
2022-10-11T19:40:09.188Z,52.50
2022-10-11T19:42:37.599Z,58.25
2022-10-11T19:45:07.767Z,59.00
2022-10-11T19:47:36.400Z,55.75
2022-10-11T19:50:05.344Z,51.50
2022-10-11T19:52:34.707Z,53.75
2022-10-11T19:55:03.283Z,49.00
2022-10-11T19:57:34.527Z,52.25
2022-10-11T20:00:03.090Z,51.50
2022-10-11T20:02:34.626Z,51.75
2022-10-11T20:05:03.718Z,52.75
2022-10-11T20:07:32.708Z,54.50
2022-10-11T20:10:01.441Z,54.00
2022-10-11T20:12:30.365Z,50.50
2022-10-11T20:15:00.979Z,53.75
2022-10-11T20:17:43.744Z,52.50
2022-10-11T20:20:12.343Z,54.25
2022-10-11T20:22:41.208Z,53.25
2022-10-11T20:25:10.641Z,52.75
2022-10-11T20:27:42.636Z,52.50
2022-10-11T20:30:14.819Z,52.50
2022-10-11T20:32:43.523Z,56.00
2022-10-11T20:35:12.098Z,54.00
2022-10-11T20:37:40.779Z,55.75
2022-10-11T20:40:12.273Z,55.75
2022-10-11T20:42:40.956Z,54.25
2022-10-11T20:45:12.692Z,50.75
2022-10-11T20:47:41.687Z,55.75
2022-10-11T20:50:12.476Z,57.25
2022-10-11T20:52:41.387Z,54.75
2022-10-11T20:55:10.379Z,58.00
2022-10-11T20:57:39.003Z,57.00
2022-10-11T21:00:09.314Z,54.50
2022-10-11T21:02:39.047Z,57.25
2022-10-11T21:05:08.605Z,57.00
2022-10-11T21:07:37.235Z,55.75
2022-10-11T21:10:06.160Z,47.00
2022-10-11T21:12:35.499Z,55.00
2022-10-11T21:15:04.248Z,54.25
2022-10-11T21:17:32.901Z,54.00
2022-10-11T21:20:05.985Z,54.25
2022-10-11T21:22:35.629Z,43.50
2022-10-11T21:25:05.080Z,53.25
2022-10-11T21:27:34.275Z,56.50
2022-10-11T21:30:03.343Z,58.00
2022-10-11T21:32:32.148Z,53.00
2022-10-11T21:35:03.441Z,55.50
2022-10-11T21:37:32.522Z,55.00
2022-10-11T21:40:01.336Z,54.25
2022-10-11T21:42:30.070Z,55.25
2022-10-11T21:44:59.334Z,56.50
2022-10-11T21:47:27.719Z,54.00
2022-10-11T21:49:56.345Z,55.25
2022-10-11T21:52:26.184Z,59.25
2022-10-11T21:54:57.441Z,55.00
2022-10-11T21:57:25.795Z,56.50
2022-10-11T21:59:54.645Z,53.75
2022-10-11T22:02:23.388Z,53.00
2022-10-11T22:04:53.409Z,56.75
2022-10-11T22:07:21.883Z,56.25
2022-10-11T22:09:52.466Z,56.25
2022-10-11T22:12:20.926Z,57.75
2022-10-11T22:14:49.538Z,59.25
2022-10-11T22:17:18.060Z,53.00
2022-10-11T22:19:46.874Z,52.50
2022-10-11T22:22:15.880Z,55.00
2022-10-11T22:24:45.004Z,56.50
2022-10-11T22:27:14.931Z,56.50
2022-10-11T22:29:43.673Z,55.50
2022-10-11T22:32:12.123Z,55.75
2022-10-11T22:34:42.462Z,56.25
2022-10-11T22:37:11.233Z,56.25
2022-10-11T22:39:39.675Z,52.75
2022-10-11T22:42:08.058Z,55.75
